KGAG/GAG METAR and TAF weather

Enter ICAO airport designator
Station Type Date Time Source
KGAG METAR 2019/10/20 19:53 UTC NOAA

KGAG 201953Z AUTO 24017G22KT 10SM CLR 25/03 A2959 RMK AO2 PK WND 21030/1905 SLP000 T02500033


Station Type Date Time Source
KGAG Decoded METAR 2019/10/20 19:53 UTC NOAA

GAGE AIRPORT, OK, United States (KGAG) 36-18N 99-46W 668M
Oct 20, 2019 - 03:53 PM EDT / 2019.10.20 1953 UTC
Wind: from the WSW (240 degrees) at 20 MPH (17 KT) gusting to 25 MPH (22 KT):0
Visibility: 10 mile(s):0
Sky conditions: clear
Temperature: 77.0 F (25.0 C)
Dew Point: 37.9 F (3.3 C)
Relative Humidity: 24%
Pressure (altimeter): 29.59 in. Hg (1002 hPa)
ob: KGAG 201953Z AUTO 24017G22KT 10SM CLR 25/03 A2959 RMK AO2 PK WND 21030/1905 SLP000 T02500033
cycle: 20

Station Type Date Time Source
KGAG TAF 2018/03/21 06:22 UTC NOAA

TAF KGAG 210520Z 2106/2206 VRB04KT P6SM SCT250
FM211300 16008KT P6SM SCT250
FM211800 18012G22KT P6SM BKN250

Example: see airport list